Time;durP1;ratioP1;P1;durP2;ratioP2;P2;SDS_P1;SDS_P2;PMS_P1;PMS_P2;Temp;Humidity;BMP_temperature;BMP_pressure;BME280_temperature;BME280_humidity;BME280_pressure;Samples;Min_cycle;Max_cycle;Signal;HPM_P1;HPM_P2
2022/04/01 00:00:34;;;;;;;0.70;0.50;;;5.20;99.90;;;;;;5033785;28;20648;-71
2022/04/01 00:02:59;;;;;;;0.70;0.50;;;5.20;99.90;;;;;;5033696;28;20661;-70
2022/04/01 00:05:25;;;;;;;0.80;0.70;;;5.20;99.90;;;;;;5033913;28;20558;-71
2022/04/01 00:07:50;;;;;;;1.30;1.20;;;5.20;99.90;;;;;;5033778;28;20196;-70
2022/04/01 00:10:16;;;;;;;0.80;0.77;;;5.20;99.90;;;;;;5033853;28;20172;-70
2022/04/01 00:12:43;;;;;;;1.70;1.60;;;5.20;99.90;;;;;;5033371;28;20175;-70
2022/04/01 00:15:12;;;;;;;0.80;0.77;;;5.30;99.90;;;;;;5033952;28;20205;-70
2022/04/01 00:17:43;;;;;;;0.73;0.60;;;5.30;99.90;;;;;;5033685;28;20517;-71
2022/04/01 00:20:10;;;;;;;1.13;0.70;;;5.30;99.90;;;;;;5033597;28;20554;-72
2022/04/01 00:22:35;;;;;;;0.80;0.70;;;5.30;99.90;;;;;;5033297;28;20458;-70
2022/04/01 00:25:01;;;;;;;0.70;0.50;;;5.30;99.90;;;;;;5033282;28;20806;-71
2022/04/01 00:27:27;;;;;;;0.70;0.50;;;5.30;99.90;;;;;;5033295;28;20667;-70
2022/04/01 00:29:53;;;;;;;1.00;0.90;;;5.30;99.90;;;;;;5033558;28;20442;-70
2022/04/01 00:32:18;;;;;;;0.70;0.50;;;5.40;99.90;;;;;;5033132;28;20540;-70
2022/04/01 00:34:45;;;;;;;0.70;0.50;;;5.40;99.90;;;;;;5033093;28;20199;-70
2022/04/01 00:37:11;;;;;;;0.70;0.50;;;5.40;99.90;;;;;;5033409;28;20167;-70
2022/04/01 00:39:38;;;;;;;0.70;0.50;;;5.40;99.90;;;;;;5033126;28;20426;-71
2022/04/01 00:42:04;;;;;;;2.10;1.33;;;5.40;99.90;;;;;;5032997;28;20790;-71
2022/04/01 00:44:32;;;;;;;0.70;0.50;;;5.40;99.90;;;;;;5032786;28;20501;-71
2022/04/01 00:47:08;;;;;;;0.70;0.50;;;5.40;99.90;;;;;;5033121;28;20514;-71
2022/04/01 00:49:34;;;;;;;0.70;0.50;;;5.40;99.90;;;;;;5032991;28;20847;-71
2022/04/01 00:52:04;;;;;;;0.70;0.50;;;5.40;99.90;;;;;;5032955;28;20457;-71
2022/04/01 00:54:29;;;;;;;0.77;0.67;;;5.40;99.90;;;;;;5032573;28;20484;-71
2022/04/01 00:56:55;;;;;;;0.70;0.50;;;5.50;99.90;;;;;;5015974;28;20935;-70
2022/04/01 00:59:22;;;;;;;1.40;1.30;;;5.50;99.90;;;;;;5032918;28;20175;-70
2022/04/01 01:01:49;;;;;;;0.70;0.50;;;5.40;99.90;;;;;;5032756;28;20453;-70
2022/04/01 01:04:16;;;;;;;0.83;0.80;;;5.40;99.90;;;;;;5032368;28;20410;-70
2022/04/01 01:06:44;;;;;;;0.70;0.50;;;5.50;99.90;;;;;;5032700;28;20438;-70
2022/04/01 01:09:10;;;;;;;0.70;0.50;;;5.50;99.90;;;;;;5032756;28;20433;-70
2022/04/01 01:11:36;;;;;;;0.80;0.80;;;5.40;99.90;;;;;;5032349;28;20423;-70
2022/04/01 01:14:10;;;;;;;0.70;0.50;;;5.50;99.90;;;;;;5032269;28;20510;-71
2022/04/01 01:16:40;;;;;;;0.80;0.73;;;5.40;99.90;;;;;;5032157;28;20446;-70
2022/04/01 01:19:10;;;;;;;0.90;0.80;;;5.40;99.90;;;;;;5031264;28;20795;-70
2022/04/01 01:21:37;;;;;;;2.60;1.37;;;5.50;99.90;;;;;;5031437;28;20973;-71
2022/04/01 01:24:05;;;;;;;0.70;0.50;;;5.50;99.90;;;;;;5030777;28;20497;-71
2022/04/01 01:26:32;;;;;;;0.73;0.53;;;5.50;99.90;;;;;;5032176;28;20442;-71
2022/04/01 01:28:59;;;;;;;1.07;0.97;;;5.50;99.90;;;;;;5032122;28;20410;-71
2022/04/01 01:31:25;;;;;;;0.80;0.80;;;5.50;99.90;;;;;;5032272;28;20456;-70
2022/04/01 01:33:53;;;;;;;0.70;0.50;;;5.50;99.90;;;;;;5030362;28;20861;-70
2022/04/01 01:36:19;;;;;;;1.43;1.33;;;5.50;99.90;;;;;;5032151;28;20800;-70
2022/04/01 01:38:45;;;;;;;0.90;0.63;;;5.50;99.90;;;;;;5032024;28;20505;-71
2022/04/01 01:41:11;;;;;;;1.53;0.90;;;5.50;99.90;;;;;;5032090;28;20537;-70
2022/04/01 01:43:37;;;;;;;1.20;0.67;;;5.40;99.90;;;;;;5030305;28;20816;-70
2022/04/01 01:46:02;;;;;;;1.27;1.17;;;5.40;99.90;;;;;;5031825;28;20444;-71
2022/04/01 01:48:28;;;;;;;0.70;0.50;;;5.40;99.90;;;;;;5031835;28;20179;-71
2022/04/01 01:56:22;;;;;;;0.70;0.50;;;5.30;99.90;;;;;;5031712;28;21029;-70
2022/04/01 01:58:48;;;;;;;0.70;0.60;;;5.30;99.90;;;;;;5031922;28;20450;-70
2022/04/01 02:01:13;;;;;;;0.70;0.50;;;5.30;99.90;;;;;;5031601;28;20199;-70
2022/04/01 02:03:39;;;;;;;0.70;0.50;;;5.20;99.90;;;;;;5030296;28;20410;-71
2022/04/01 02:06:05;;;;;;;0.70;0.60;;;5.20;99.90;;;;;;5031733;28;20187;-71
2022/04/01 02:08:31;;;;;;;1.73;1.63;;;5.20;99.90;;;;;;5031835;28;20175;-70
2022/04/01 02:10:57;;;;;;;0.90;0.90;;;5.20;99.90;;;;;;5031693;28;20167;-71
2022/04/01 02:13:23;;;;;;;0.70;0.50;;;5.10;99.90;;;;;;5031442;28;20422;-70
2022/04/01 02:15:49;;;;;;;0.70;0.50;;;5.10;99.90;;;;;;5031367;28;20469;-70
2022/04/01 02:18:16;;;;;;;0.70;0.47;;;5.10;99.90;;;;;;5036189;28;20432;-70
2022/04/01 02:20:42;;;;;;;0.80;0.70;;;5.10;99.90;;;;;;5038221;28;20422;-70
2022/04/01 02:23:09;;;;;;;0.70;0.50;;;5.00;99.90;;;;;;5038034;28;20414;-70
2022/04/01 02:25:35;;;;;;;1.27;1.17;;;5.00;99.90;;;;;;5037924;28;20434;-70
2022/04/01 02:28:01;;;;;;;0.90;0.90;;;5.00;99.90;;;;;;5038245;28;20414;-70
2022/04/01 02:30:27;;;;;;;0.70;0.50;;;5.00;99.90;;;;;;5038242;28;20561;-70
2022/04/01 02:32:53;;;;;;;0.70;0.50;;;4.90;99.90;;;;;;5037996;28;20516;-70
2022/04/01 02:35:18;;;;;;;0.70;0.50;;;4.90;99.90;;;;;;5037767;28;20207;-70
2022/04/01 02:37:44;;;;;;;1.10;0.77;;;4.90;99.90;;;;;;5038229;28;20179;-71
2022/04/01 02:40:11;;;;;;;0.73;0.60;;;4.90;99.90;;;;;;5037913;28;20645;-70
2022/04/01 02:42:37;;;;;;;1.20;0.77;;;4.90;99.90;;;;;;5037825;28;20187;-70
2022/04/01 02:45:03;;;;;;;1.23;1.00;;;4.90;99.90;;;;;;5038039;28;20442;-70
2022/04/01 02:47:29;;;;;;;0.70;0.50;;;4.90;99.90;;;;;;5037976;28;20415;-70
2022/04/01 02:49:55;;;;;;;0.70;0.50;;;4.90;99.90;;;;;;5037987;28;20989;-70
2022/04/01 02:52:20;;;;;;;0.70;0.60;;;4.90;99.90;;;;;;5037848;28;20207;-71
2022/04/01 02:54:46;;;;;;;0.70;0.50;;;4.80;99.90;;;;;;5037600;28;20269;-70
2022/04/01 02:57:13;;;;;;;0.70;0.60;;;4.80;99.90;;;;;;5037816;28;20179;-70
2022/04/01 02:59:38;;;;;;;0.70;0.60;;;4.80;99.90;;;;;;5037816;28;20501;-70
2022/04/01 03:02:04;;;;;;;0.80;0.60;;;4.80;99.90;;;;;;5036394;28;20537;-70
2022/04/01 03:04:31;;;;;;;0.70;0.50;;;4.80;99.90;;;;;;5037544;28;20194;-71
2022/04/01 03:06:56;;;;;;;0.87;0.80;;;4.80;99.90;;;;;;5037846;28;20501;-70
2022/04/01 03:09:22;;;;;;;0.80;0.60;;;4.80;99.90;;;;;;5037961;28;20175;-70
2022/04/01 03:11:47;;;;;;;1.00;0.73;;;4.70;99.90;;;;;;5037530;28;20389;-70
2022/04/01 03:14:13;;;;;;;0.70;0.50;;;4.70;99.90;;;;;;5037532;28;20206;-70
2022/04/01 03:16:42;;;;;;;0.70;0.50;;;4.70;99.90;;;;;;5036615;28;20199;-71
2022/04/01 03:19:08;;;;;;;0.70;0.50;;;4.70;99.90;;;;;;5037666;28;20179;-70
2022/04/01 03:21:36;;;;;;;0.90;0.70;;;4.70;99.90;;;;;;5036175;28;20450;-70
2022/04/01 03:24:02;;;;;;;0.70;0.50;;;4.70;99.90;;;;;;5036068;28;20820;-70
2022/04/01 03:26:28;;;;;;;0.70;0.60;;;4.70;99.90;;;;;;5036292;28;20445;-70
2022/04/01 03:28:55;;;;;;;1.17;1.07;;;4.70;99.90;;;;;;5035121;28;20505;-70
2022/04/01 03:31:20;;;;;;;0.70;0.50;;;4.70;99.90;;;;;;5034503;28;20501;-70
2022/04/01 03:33:46;;;;;;;0.90;0.80;;;4.70;99.90;;;;;;5034191;28;20465;-70
2022/04/01 03:36:13;;;;;;;0.70;0.50;;;4.60;99.90;;;;;;5033047;28;20215;-71
2022/04/01 03:38:40;;;;;;;0.90;0.63;;;4.60;99.90;;;;;;5034328;28;20180;-70
2022/04/01 03:41:06;;;;;;;1.10;0.70;;;4.60;99.90;;;;;;5033084;28;21002;-70
2022/04/01 03:43:34;;;;;;;1.30;0.70;;;4.60;99.90;;;;;;5033964;28;20422;-70
2022/04/01 03:46:05;;;;;;;1.13;1.03;;;4.60;99.90;;;;;;5034076;28;20438;-70
2022/04/01 03:48:38;;;;;;;0.70;0.50;;;4.60;99.90;;;;;;5032827;28;20422;-70
2022/04/01 03:51:04;;;;;;;1.53;0.73;;;4.60;99.90;;;;;;5034115;28;20420;-70
2022/04/01 03:53:31;;;;;;;5.60;1.33;;;4.60;99.90;;;;;;5033673;28;20481;-70
2022/04/01 03:55:58;;;;;;;0.90;0.70;;;4.50;99.90;;;;;;5032846;28;20522;-70
2022/04/01 03:58:30;;;;;;;0.70;0.50;;;4.50;99.90;;;;;;5033893;28;20422;-71
2022/04/01 04:01:00;;;;;;;0.70;0.50;;;4.50;99.90;;;;;;5034036;28;20454;-70
2022/04/01 04:03:27;;;;;;;0.70;0.50;;;4.50;99.90;;;;;;5033342;28;20419;-71
2022/04/01 04:05:53;;;;;;;0.87;0.67;;;4.50;99.90;;;;;;5033821;28;20850;-70
2022/04/01 04:08:22;;;;;;;1.17;1.07;;;4.50;99.90;;;;;;5034466;28;20414;-70
2022/04/01 04:10:49;;;;;;;0.80;0.73;;;4.50;99.90;;;;;;5025979;28;20422;-71
2022/04/01 04:13:16;;;;;;;0.70;0.50;;;4.40;99.90;;;;;;5033383;28;20414;-70
2022/04/01 04:16:00;;;;;;;0.70;0.50;;;4.40;99.90;;;;;;5033721;28;20981;-70
2022/04/01 04:18:51;;;;;;;0.70;0.60;;;4.40;99.90;;;;;;5032635;28;20425;-70
2022/04/01 04:21:24;;;;;;;0.97;0.87;;;4.40;99.90;;;;;;5032771;28;21024;-71
2022/04/01 04:23:55;;;;;;;0.70;0.50;;;4.40;99.90;;;;;;5033662;28;20958;-71
2022/04/01 04:26:28;;;;;;;0.70;0.50;;;4.30;99.90;;;;;;5034003;28;20434;-70
2022/04/01 04:29:00;;;;;;;0.70;0.50;;;4.30;99.90;;;;;;5033895;28;20487;-71
2022/04/01 04:31:30;;;;;;;1.20;0.70;;;4.30;99.90;;;;;;5033947;28;20898;-70
2022/04/01 04:33:56;;;;;;;0.80;0.70;;;4.30;99.90;;;;;;5033249;28;20414;-70
2022/04/01 04:36:34;;;;;;;0.70;0.50;;;4.30;99.90;;;;;;5033327;28;20470;-70
2022/04/01 04:39:28;;;;;;;0.70;0.50;;;4.30;99.90;;;;;;5033500;28;20937;-71
2022/04/01 04:41:55;;;;;;;0.70;0.50;;;4.20;99.90;;;;;;5032659;28;20504;-71
2022/04/01 04:44:24;;;;;;;0.80;0.70;;;4.20;99.90;;;;;;5033193;28;20421;-70
2022/04/01 04:46:50;;;;;;;1.03;1.03;;;4.20;99.90;;;;;;5033253;28;20431;-70
2022/04/01 04:49:17;;;;;;;0.80;0.70;;;4.20;99.90;;;;;;5033184;28;20418;-71
2022/04/01 04:51:47;;;;;;;0.70;0.60;;;4.20;99.90;;;;;;5033013;28;21283;-70
2022/04/01 04:54:14;;;;;;;1.20;0.80;;;4.20;99.90;;;;;;5032761;28;20446;-70
2022/04/01 04:56:41;;;;;;;0.70;0.50;;;4.10;99.90;;;;;;5032808;28;20446;-70
2022/04/01 04:59:09;;;;;;;0.90;0.80;;;4.10;99.90;;;;;;5033311;28;20423;-70
2022/04/01 05:01:44;;;;;;;0.70;0.50;;;4.10;99.90;;;;;;5032953;28;20457;-71
2022/04/01 05:04:22;;;;;;;0.73;0.57;;;4.10;99.90;;;;;;5032788;28;20472;-70
2022/04/01 05:07:09;;;;;;;0.70;0.50;;;4.10;99.90;;;;;;5031687;28;20410;-71
2022/04/01 05:09:55;;;;;;;0.70;0.50;;;4.10;99.90;;;;;;5032942;28;20418;-70
2022/04/01 05:12:58;;;;;;;1.23;1.07;;;4.10;99.90;;;;;;5015242;28;20426;-70
2022/04/01 05:15:31;;;;;;;0.70;0.60;;;4.00;99.90;;;;;;5031950;28;20453;-70
2022/04/01 05:18:12;;;;;;;0.70;0.50;;;4.10;99.90;;;;;;5032627;28;20421;-70
2022/04/01 05:20:45;;;;;;;0.70;0.50;;;4.10;99.90;;;;;;5032684;28;20816;-70
2022/04/01 05:23:18;;;;;;;0.70;0.50;;;4.00;99.90;;;;;;5032371;28;20426;-70
2022/04/01 05:26:00;;;;;;;0.70;0.50;;;4.00;99.90;;;;;;5031115;28;20529;-70
2022/04/01 05:28:34;;;;;;;0.70;0.50;;;4.00;99.90;;;;;;5032197;28;20517;-70
2022/04/01 05:31:12;;;;;;;0.80;0.60;;;4.00;99.90;;;;;;5032588;28;20425;-70
2022/04/01 05:33:54;;;;;;;0.70;0.50;;;4.00;99.90;;;;;;5031771;28;20437;-70
2022/04/01 05:36:22;;;;;;;0.80;0.60;;;4.00;99.90;;;;;;5032311;28;20434;-70
2022/04/01 05:38:48;;;;;;;0.70;0.50;;;4.00;99.90;;;;;;5031866;28;20943;-70
2022/04/01 05:41:19;;;;;;;0.77;0.57;;;4.00;99.90;;;;;;5032252;28;20793;-70
2022/04/01 05:43:46;;;;;;;0.70;0.50;;;4.00;99.90;;;;;;5031627;28;20432;-70
2022/04/01 05:46:13;;;;;;;0.70;0.50;;;4.00;99.90;;;;;;5032122;28;20434;-70
2022/04/01 05:48:41;;;;;;;0.70;0.50;;;4.00;99.90;;;;;;5032138;28;20514;-70
2022/04/01 05:51:07;;;;;;;0.70;0.50;;;4.00;99.90;;;;;;5032077;28;20841;-70
2022/04/01 05:53:34;;;;;;;1.17;1.07;;;4.00;99.90;;;;;;5029777;28;21190;-70
2022/04/01 05:56:01;;;;;;;0.70;0.60;;;4.00;99.90;;;;;;5031874;28;20445;-70
2022/04/01 05:58:27;;;;;;;0.87;0.60;;;4.00;99.90;;;;;;5031654;28;20457;-70
2022/04/01 06:01:07;;;;;;;0.70;0.50;;;4.00;99.90;;;;;;5030495;28;20450;-70
2022/04/01 06:04:01;;;;;;;0.70;0.50;;;4.00;99.90;;;;;;5031607;28;20421;-70
2022/04/01 06:06:36;;;;;;;1.33;1.23;;;4.00;99.90;;;;;;5031953;28;20877;-70
2022/04/01 06:09:29;;;;;;;0.70;0.50;;;4.00;99.90;;;;;;5031936;28;20422;-70
2022/04/01 06:12:09;;;;;;;0.70;0.50;;;4.00;99.90;;;;;;5032019;28;20414;-71
2022/04/01 06:14:58;;;;;;;0.70;0.50;;;4.00;99.90;;;;;;5030195;28;20418;-71
2022/04/01 06:17:37;;;;;;;1.10;1.07;;;4.00;99.90;;;;;;5030799;28;20510;-70
2022/04/01 06:20:07;;;;;;;1.43;1.33;;;4.00;99.90;;;;;;5030617;28;20418;-70
2022/04/01 06:22:36;;;;;;;0.70;0.50;;;4.00;99.90;;;;;;5031668;28;20458;-70
2022/04/01 06:25:02;;;;;;;0.70;0.50;;;4.00;99.90;;;;;;5031481;28;20489;-70
2022/04/01 06:27:41;;;;;;;0.70;0.60;;;4.00;99.90;;;;;;5030113;28;20951;-70
2022/04/01 06:30:09;;;;;;;0.80;0.60;;;4.00;99.90;;;;;;5031638;28;20193;-70
2022/04/01 06:33:12;;;;;;;0.87;0.87;;;4.00;99.90;;;;;;5031227;28;20871;-70
2022/04/01 06:36:03;;;;;;;0.70;0.50;;;4.00;99.90;;;;;;5031302;28;21021;-70
2022/04/01 06:38:38;;;;;;;0.70;0.50;;;4.00;99.90;;;;;;5031526;28;20422;-70
2022/04/01 06:41:07;;;;;;;0.97;0.60;;;4.00;99.90;;;;;;5031522;28;20457;-70
2022/04/01 06:43:35;;;;;;;0.70;0.50;;;4.00;99.90;;;;;;5030953;28;20836;-70
2022/04/01 06:46:02;;;;;;;1.00;0.80;;;4.00;99.90;;;;;;5031038;28;20434;-70
2022/04/01 06:48:27;;;;;;;0.70;0.50;;;4.00;99.90;;;;;;5031232;28;20442;-70
2022/04/01 06:50:54;;;;;;;0.70;0.50;;;4.00;99.90;;;;;;5031169;28;20938;-70
2022/04/01 06:53:20;;;;;;;1.10;0.70;;;3.90;99.90;;;;;;5030565;28;20172;-70
2022/04/01 06:55:47;;;;;;;0.73;0.50;;;4.00;99.90;;;;;;5031300;28;20476;-70
2022/04/01 06:58:13;;;;;;;0.70;0.50;;;4.00;99.90;;;;;;5031370;28;20418;-70
2022/04/01 07:00:43;;;;;;;0.70;0.60;;;4.00;99.90;;;;;;5029798;28;20955;-70
2022/04/01 07:03:09;;;;;;;0.70;0.50;;;4.00;99.90;;;;;;5030025;28;20187;-70
2022/04/01 07:05:36;;;;;;;0.80;0.60;;;4.00;99.90;;;;;;5034790;28;20434;-70
2022/04/01 07:08:05;;;;;;;0.70;0.47;;;4.00;99.90;;;;;;5035011;28;20911;-70
2022/04/01 07:10:31;;;;;;;0.70;0.50;;;4.00;99.90;;;;;;5033555;28;20424;-70
2022/04/01 07:12:58;;;;;;;1.20;0.83;;;4.00;99.90;;;;;;5034702;28;20946;-70
2022/04/01 07:15:24;;;;;;;0.70;0.50;;;4.00;99.90;;;;;;5033301;28;20441;-70
2022/04/01 07:17:50;;;;;;;0.70;0.50;;;4.00;99.90;;;;;;5034676;28;20504;-70
2022/04/01 07:20:16;;;;;;;0.90;0.73;;;4.10;99.90;;;;;;5033408;28;20448;-69
2022/04/01 07:22:42;;;;;;;0.70;0.50;;;4.10;99.90;;;;;;5034202;28;20466;-70
2022/04/01 07:25:09;;;;;;;0.80;0.77;;;4.10;99.90;;;;;;5034600;28;20445;-70
2022/04/01 07:27:36;;;;;;;1.37;1.27;;;4.10;99.90;;;;;;5034624;28;20606;-70
2022/04/01 07:30:03;;;;;;;0.70;0.50;;;4.00;99.90;;;;;;5033112;28;21005;-70
2022/04/01 07:32:34;;;;;;;0.70;0.50;;;4.10;99.90;;;;;;5034535;28;20434;-70
2022/04/01 07:35:05;;;;;;;0.70;0.53;;;4.00;99.90;;;;;;5034289;28;20831;-70
2022/04/01 07:37:31;;;;;;;0.70;0.50;;;4.00;99.90;;;;;;5034456;28;20857;-70
2022/04/01 07:39:57;;;;;;;0.80;0.70;;;4.00;99.90;;;;;;5034340;28;20460;-70
2022/04/01 07:42:24;;;;;;;1.23;1.13;;;4.00;99.90;;;;;;5034401;28;20485;-70
2022/04/01 07:44:51;;;;;;;0.70;0.50;;;4.00;99.90;;;;;;5033520;28;20436;-70
2022/04/01 07:47:18;;;;;;;0.70;0.50;;;4.00;99.90;;;;;;5034141;28;20414;-70
2022/04/01 07:49:45;;;;;;;0.70;0.50;;;4.00;99.90;;;;;;5034154;28;20422;-70
2022/04/01 07:52:13;;;;;;;0.70;0.50;;;4.00;99.90;;;;;;5034086;28;20418;-69
2022/04/01 07:54:41;;;;;;;0.70;0.50;;;4.00;99.90;;;;;;5032725;28;20965;-70
2022/04/01 07:57:07;;;;;;;0.90;0.90;;;4.10;99.90;;;;;;5033852;28;20827;-70
2022/04/01 07:59:34;;;;;;;0.70;0.50;;;4.10;99.90;;;;;;5033977;28;20425;-70
2022/04/01 08:02:00;;;;;;;0.70;0.50;;;4.20;99.90;;;;;;5033888;28;20819;-69
2022/04/01 08:04:27;;;;;;;0.80;0.60;;;4.20;99.90;;;;;;5033507;28;20816;-70
2022/04/01 08:06:56;;;;;;;0.70;0.50;;;4.20;99.90;;;;;;5033937;28;20415;-70
2022/04/01 08:09:23;;;;;;;0.70;0.40;;;4.20;99.90;;;;;;5033660;28;20526;-70
2022/04/01 08:11:49;;;;;;;0.70;0.40;;;4.30;99.90;;;;;;5033655;28;20426;-70
2022/04/01 08:14:15;;;;;;;0.70;0.50;;;4.30;99.90;;;;;;5032145;28;20429;-70
2022/04/01 08:16:41;;;;;;;0.70;0.50;;;4.30;99.90;;;;;;5032957;28;20442;-70
2022/04/01 08:19:06;;;;;;;0.80;0.70;;;4.40;99.90;;;;;;5033616;28;20414;-70
2022/04/01 08:21:32;;;;;;;0.80;0.70;;;4.40;99.90;;;;;;5033581;28;20203;-70
2022/04/01 08:23:59;;;;;;;0.70;0.50;;;4.40;99.90;;;;;;5033276;28;20186;-70
2022/04/01 08:26:25;;;;;;;0.70;0.50;;;4.50;99.90;;;;;;5033470;28;20202;-70
2022/04/01 08:28:51;;;;;;;0.70;0.50;;;4.60;99.90;;;;;;5033570;28;20441;-70
2022/04/01 08:31:17;;;;;;;1.70;1.60;;;4.60;99.90;;;;;;5033405;28;20419;-70
2022/04/01 08:33:43;;;;;;;1.23;1.13;;;4.70;99.90;;;;;;5033106;28;20865;-70
2022/04/01 08:36:08;;;;;;;0.70;0.50;;;4.70;99.90;;;;;;5033110;28;20206;-70
2022/04/01 08:38:34;;;;;;;0.70;0.50;;;4.80;99.90;;;;;;5033411;28;20225;-70
2022/04/01 08:41:01;;;;;;;0.70;0.50;;;4.80;99.90;;;;;;5033107;28;20255;-70
2022/04/01 08:43:35;;;;;;;0.70;0.60;;;4.90;99.90;;;;;;5033033;28;20919;-70
2022/04/01 08:46:04;;;;;;;0.70;0.50;;;4.90;99.90;;;;;;5033091;28;20441;-69
2022/04/01 08:48:31;;;;;;;0.70;0.50;;;4.90;99.90;;;;;;5033063;28;20422;-70
2022/04/01 08:50:57;;;;;;;0.80;0.50;;;4.90;99.90;;;;;;5033222;28;20904;-70
2022/04/01 08:53:23;;;;;;;0.70;0.50;;;4.90;99.90;;;;;;5032495;28;20429;-70
2022/04/01 08:55:51;;;;;;;0.70;0.50;;;4.90;99.90;;;;;;5033127;28;20449;-70
2022/04/01 08:58:19;;;;;;;0.70;0.50;;;5.00;99.90;;;;;;5033017;28;20410;-70
2022/04/01 09:00:46;;;;;;;0.70;0.50;;;5.00;99.90;;;;;;5032645;28;20529;-70
2022/04/01 09:03:13;;;;;;;0.70;0.50;;;5.00;99.90;;;;;;5032643;28;20789;-69
2022/04/01 09:05:45;;;;;;;0.70;0.50;;;5.00;99.90;;;;;;5032527;28;20453;-70
2022/04/01 09:08:14;;;;;;;0.80;0.63;;;5.00;99.90;;;;;;5032465;28;20778;-70
2022/04/01 09:10:55;;;;;;;0.70;0.50;;;5.00;99.90;;;;;;5032874;28;20497;-70
2022/04/01 09:13:22;;;;;;;0.80;0.70;;;5.00;99.90;;;;;;5032428;28;20414;-70
2022/04/01 09:15:48;;;;;;;0.70;0.50;;;5.00;99.90;;;;;;5032098;28;20436;-70
2022/04/01 09:18:37;;;;;;;0.70;0.50;;;5.00;99.90;;;;;;5032543;28;20414;-70
2022/04/01 09:21:04;;;;;;;0.70;0.50;;;5.00;99.90;;;;;;5031459;28;20278;-70
2022/04/01 09:23:30;;;;;;;0.80;0.80;;;5.10;99.90;;;;;;5031984;28;20501;-70
2022/04/01 09:25:56;;;;;;;0.70;0.60;;;5.10;99.90;;;;;;5032259;28;20436;-70
2022/04/01 09:28:30;;;;;;;0.70;0.50;;;5.10;99.90;;;;;;5031479;28;20418;-70
2022/04/01 09:30:59;;;;;;;0.70;0.50;;;5.10;99.90;;;;;;5032212;28;20947;-70
2022/04/01 09:33:45;;;;;;;0.70;0.50;;;5.10;99.90;;;;;;5031908;28;20501;-70
2022/04/01 09:36:26;;;;;;;0.70;0.50;;;5.10;99.90;;;;;;5032034;28;20436;-70
2022/04/01 09:39:14;;;;;;;0.70;0.50;;;5.10;99.90;;;;;;5032258;28;20497;-70
2022/04/01 09:41:43;;;;;;;0.70;0.50;;;5.10;99.90;;;;;;5030851;28;20454;-70
2022/04/01 09:44:19;;;;;;;0.70;0.50;;;5.20;99.90;;;;;;5031538;28;20410;-70
2022/04/01 09:46:53;;;;;;;0.87;0.60;;;5.20;99.90;;;;;;5031762;28;20433;-70
2022/04/01 09:49:42;;;;;;;0.80;0.60;;;5.10;99.90;;;;;;5032144;28;20498;-70
2022/04/01 09:52:13;;;;;;;0.80;0.60;;;5.10;99.90;;;;;;5031781;28;20452;-70
2022/04/01 09:54:50;;;;;;;0.70;0.50;;;5.10;99.90;;;;;;5031400;28;20473;-70
2022/04/01 09:57:20;;;;;;;0.70;0.50;;;5.10;99.90;;;;;;5031837;28;20790;-70
2022/04/01 09:59:47;;;;;;;0.70;0.50;;;5.10;99.90;;;;;;5032020;28;20426;-70
2022/04/01 10:02:12;;;;;;;0.70;0.50;;;5.10;99.90;;;;;;5031658;28;20468;-70
2022/04/01 10:04:38;;;;;;;0.90;0.80;;;5.10;99.90;;;;;;5031573;28;20422;-70
2022/04/01 10:07:04;;;;;;;0.70;0.50;;;5.10;99.90;;;;;;5031920;28;20171;-70
2022/04/01 10:09:31;;;;;;;0.70;0.50;;;5.10;99.90;;;;;;5031667;28;20751;-70
2022/04/01 10:12:00;;;;;;;0.70;0.50;;;5.20;99.90;;;;;;5031916;28;21038;-70
2022/04/01 10:14:26;;;;;;;0.93;0.83;;;5.20;99.90;;;;;;5031320;28;20497;-70
2022/04/01 10:16:59;;;;;;;1.13;1.07;;;5.20;99.90;;;;;;5031514;28;20430;-70
2022/04/01 10:19:32;;;;;;;0.90;0.60;;;5.20;99.90;;;;;;5031736;28;20907;-70
2022/04/01 10:21:58;;;;;;;0.70;0.57;;;5.20;99.90;;;;;;5031780;28;20461;-70
2022/04/01 10:25:01;;;;;;;0.87;0.80;;;5.20;99.90;;;;;;5031333;28;20429;-70
2022/04/01 10:27:40;;;;;;;0.70;0.50;;;5.20;99.90;;;;;;5031469;28;20980;-70
2022/04/01 10:30:07;;;;;;;0.70;0.50;;;5.20;99.90;;;;;;5031837;28;20460;-69
2022/04/01 10:32:41;;;;;;;1.60;1.50;;;5.20;99.90;;;;;;5031390;28;20417;-70
2022/04/01 10:35:08;;;;;;;0.70;0.50;;;5.30;99.90;;;;;;5029996;28;20453;-70
2022/04/01 10:37:35;;;;;;;0.70;0.50;;;5.30;99.90;;;;;;5031454;28;20418;-70
2022/04/01 10:40:17;;;;;;;0.70;0.50;;;5.40;99.90;;;;;;5035430;28;20424;-69
2022/04/01 10:42:44;;;;;;;0.80;0.60;;;5.40;99.90;;;;;;5034249;28;20978;-70
2022/04/01 10:45:30;;;;;;;0.70;0.50;;;5.40;99.90;;;;;;5035097;28;20461;-70
2022/04/01 10:53:48;;;;;;;0.70;0.50;;;5.50;99.90;;;;;;5034817;28;20469;-69
2022/04/01 10:56:23;;;;;;;0.90;0.70;;;5.60;99.90;;;;;;5035288;28;20466;-70
2022/04/01 10:59:11;;;;;;;0.70;0.50;;;5.60;99.90;;;;;;5035126;28;20164;-70
2022/04/01 11:01:52;;;;;;;0.70;0.50;;;5.70;99.90;;;;;;5033622;28;20464;-70
2022/04/01 11:04:17;;;;;;;0.70;0.50;;;5.80;99.90;;;;;;5034935;28;20552;-69
2022/04/01 11:07:05;;;;;;;0.70;0.50;;;5.80;99.90;;;;;;5033700;28;20521;-70
2022/04/01 11:09:40;;;;;;;1.10;1.00;;;5.90;99.90;;;;;;5034627;28;20176;-70
2022/04/01 11:12:18;;;;;;;0.70;0.50;;;6.00;99.90;;;;;;5035088;28;20424;-70
2022/04/01 11:17:35;;;;;;;0.73;0.57;;;6.20;99.90;;;;;;5034247;28;20426;-70
2022/04/01 11:20:03;;;;;;;0.90;0.80;;;6.30;99.90;;;;;;5033975;28;20911;-70
2022/04/01 11:22:44;;;;;;;0.80;0.80;;;6.40;99.90;;;;;;5034134;28;20464;-70
2022/04/01 11:25:34;;;;;;;0.70;0.60;;;6.50;99.90;;;;;;5033849;28;20433;-70
2022/04/01 11:28:05;;;;;;;0.70;0.50;;;6.60;99.90;;;;;;5034582;28;20418;-70
2022/04/01 11:30:54;;;;;;;1.17;0.60;;;6.60;99.90;;;;;;5034488;28;20488;-70
2022/04/01 11:33:21;;;;;;;0.70;0.50;;;6.60;99.90;;;;;;5033635;28;20423;-70
2022/04/01 11:35:51;;;;;;;0.70;0.50;;;6.60;99.90;;;;;;5034051;28;20528;-70
2022/04/01 11:38:19;;;;;;;1.20;0.77;;;6.60;99.90;;;;;;5034502;28;20418;-70
2022/04/01 11:40:47;;;;;;;0.80;0.50;;;6.60;99.90;;;;;;5034204;28;21018;-70
2022/04/01 11:43:14;;;;;;;0.80;0.60;;;6.50;99.90;;;;;;5032656;28;20454;-70
2022/04/01 11:45:51;;;;;;;1.00;0.60;;;6.50;99.90;;;;;;5034188;28;20453;-70
2022/04/01 11:48:26;;;;;;;0.80;0.73;;;6.50;99.90;;;;;;5034387;28;20922;-69
2022/04/01 11:51:01;;;;;;;0.70;0.50;;;6.40;99.90;;;;;;5033216;28;20785;-70
2022/04/01 11:53:35;;;;;;;0.80;0.70;;;6.40;99.90;;;;;;5033877;28;20490;-70
2022/04/01 11:56:04;;;;;;;0.70;0.50;;;6.40;99.90;;;;;;5034188;28;20445;-70
2022/04/01 11:58:53;;;;;;;0.70;0.50;;;6.30;99.90;;;;;;5033807;28;20414;-70
2022/04/01 12:01:20;;;;;;;0.70;0.50;;;6.20;99.90;;;;;;5034083;28;20453;-70
2022/04/01 12:03:46;;;;;;;1.37;0.70;;;6.20;99.90;;;;;;5033449;28;20417;-69
2022/04/01 12:09:02;;;;;;;0.70;0.50;;;6.20;99.90;;;;;;5034132;28;20221;-70
2022/04/01 12:11:27;;;;;;;1.77;0.90;;;6.10;99.90;;;;;;5033859;28;20422;-70
2022/04/01 12:13:53;;;;;;;0.70;0.50;;;6.10;99.90;;;;;;5032554;28;20414;-69
2022/04/01 12:16:21;;;;;;;0.70;0.50;;;6.00;99.90;;;;;;5033581;28;20191;-70
2022/04/01 12:18:48;;;;;;;0.70;0.50;;;6.00;99.90;;;;;;5033209;28;20418;-70
2022/04/01 12:21:22;;;;;;;0.70;0.50;;;6.00;99.90;;;;;;5033482;28;21046;-70
2022/04/01 12:23:50;;;;;;;1.27;1.17;;;6.00;99.90;;;;;;5033081;28;20450;-70
2022/04/01 12:26:17;;;;;;;0.80;0.60;;;5.90;99.90;;;;;;5033608;28;21019;-70
2022/04/01 12:28:45;;;;;;;0.70;0.50;;;5.90;99.90;;;;;;5033719;28;20954;-70
2022/04/01 12:31:21;;;;;;;0.70;0.50;;;5.80;99.90;;;;;;5033515;28;20410;-70
2022/04/01 12:33:52;;;;;;;0.70;0.50;;;5.80;99.90;;;;;;5033273;28;20951;-70
2022/04/01 12:36:36;;;;;;;0.70;0.50;;;5.80;99.90;;;;;;5032039;28;20473;-70
2022/04/01 12:39:07;;;;;;;0.80;0.80;;;5.70;99.90;;;;;;5031822;28;20869;-70
2022/04/01 12:41:33;;;;;;;0.70;0.50;;;5.70;99.90;;;;;;5033477;28;20536;-70
2022/04/01 12:44:02;;;;;;;0.70;0.60;;;5.60;99.90;;;;;;5032780;28;20494;-70
2022/04/01 12:46:33;;;;;;;1.33;1.23;;;5.60;99.90;;;;;;5033104;28;20196;-70
2022/04/01 12:49:01;;;;;;;0.70;0.50;;;5.60;99.90;;;;;;5033177;28;20416;-70
2022/04/01 12:51:29;;;;;;;0.80;0.80;;;5.60;99.90;;;;;;5032932;28;20967;-70
2022/04/01 12:54:12;;;;;;;0.70;0.60;;;5.60;99.90;;;;;;5032691;28;20448;-69
2022/04/01 12:56:43;;;;;;;0.70;0.50;;;5.60;99.90;;;;;;5032882;28;20529;-70
2022/04/01 12:59:21;;;;;;;0.83;0.70;;;5.60;99.90;;;;;;5033050;28;20472;-70
2022/04/01 13:01:56;;;;;;;0.70;0.50;;;5.70;99.90;;;;;;5032353;28;20488;-70
2022/04/01 13:04:22;;;;;;;0.70;0.50;;;5.80;99.90;;;;;;5032630;28;20999;-70
2022/04/01 13:07:12;;;;;;;0.70;0.50;;;5.80;99.90;;;;;;5031474;28;20525;-70
2022/04/01 13:09:58;;;;;;;0.70;0.50;;;5.90;99.90;;;;;;5032684;28;20529;-70
2022/04/01 13:12:43;;;;;;;0.70;0.60;;;6.00;99.90;;;;;;5032785;28;20988;-70
2022/04/01 13:15:13;;;;;;;2.83;0.77;;;6.00;99.90;;;;;;5032204;28;20843;-70
2022/04/01 13:17:42;;;;;;;0.80;0.60;;;6.10;99.90;;;;;;5032312;28;20414;-70
2022/04/01 13:20:13;;;;;;;1.23;0.70;;;6.30;99.90;;;;;;5032388;28;20418;-70
2022/04/01 13:22:40;;;;;;;1.00;0.60;;;6.60;99.90;;;;;;5032032;28;20959;-70
2022/04/01 13:25:06;;;;;;;1.20;0.80;;;6.90;99.90;;;;;;5032242;28;20434;-71
2022/04/01 13:27:32;;;;;;;0.70;0.60;;;7.10;99.90;;;;;;5032163;28;20956;-70
2022/04/01 13:29:58;;;;;;;0.80;0.70;;;7.30;99.90;;;;;;5030776;28;20411;-71